KCDJ

Chillicothe Agri-Science Center Airport

Chillicothe, Missouri, USA
METAR KCDJ 271152Z AUTO 20005KT 24/21 A2987 RMK AO1 SLP099 T02440206 10261 20217 53014
Observed Flight Rules
May-27 @ 11:52 UTC (14 minutes ago)
Wind
200° at 5 knots
Temperatures Readings
Current 24°C / 75°F
Dewpoint 21°C / 70°F
Humidity 83%
Altimeter 29.87" Hg
Pressure 1009.9 hPa
Elevation 234
METAR KCDJ 271152Z AUTO 20005KT 24/21 A2987 RMK AO1 SLP099 T02440206 10261 20217 53014
Observed Flight Rules
May-27 @ 11:52 UTC
(14 minutes ago)
Wind
200° at 5 knots
Temperature Dewpoint
24°C / 75°F 21°C / 70°F
Humidity Altimeter Pressure
83% 29.87" Hg 1009.9 hPa